Terminal Aerodrome Forecast
Issued by NWS

Home | Current Version | Previous Version | Text Only | Print | Product List | Glossary On
Versions: 1 2 3 4 5 6 7 8 9 10 11 12 13 14 15 16 17 18 19 20 21 22 23 24 25 26 27 28 29 30 31 32
000
FTUS41 KCAR 232335
TAFBHB
TAF
KBHB 232335Z 2400/2424 20010KT P6SM BKN200
     FM240600 24008KT 5SM BR OVC060
     FM241000 32010KT P6SM SCT060
     FM242000 20008KT P6SM SCT200=

USA.gov is the U.S. government's official web portal to all federal, state and local government web resources and services.